sensor_id;sensor_type;location;lat;lon;timestamp;temperature;humidity
4637;DHT22;2331;48.806;9.140;2024-02-16T00:00:52;14.40;1.00
4637;DHT22;2331;48.806;9.140;2024-02-16T00:03:19;14.40;1.00
4637;DHT22;2331;48.806;9.140;2024-02-16T00:05:47;14.40;1.00
4637;DHT22;2331;48.806;9.140;2024-02-16T00:08:18;14.40;1.00
4637;DHT22;2331;48.806;9.140;2024-02-16T00:10:45;14.30;1.00
4637;DHT22;2331;48.806;9.140;2024-02-16T00:13:12;14.30;1.00
4637;DHT22;2331;48.806;9.140;2024-02-16T00:15:39;14.30;1.00
4637;DHT22;2331;48.806;9.140;2024-02-16T00:18:06;14.30;1.00
4637;DHT22;2331;48.806;9.140;2024-02-16T00:20:33;14.30;1.00
4637;DHT22;2331;48.806;9.140;2024-02-16T00:22:59;14.30;1.00
4637;DHT22;2331;48.806;9.140;2024-02-16T00:25:27;14.20;1.00
4637;DHT22;2331;48.806;9.140;2024-02-16T00:27:54;14.20;1.00
4637;DHT22;2331;48.806;9.140;2024-02-16T00:30:22;14.20;1.00
4637;DHT22;2331;48.806;9.140;2024-02-16T00:32:49;14.20;1.00
4637;DHT22;2331;48.806;9.140;2024-02-16T00:35:15;14.20;1.00
4637;DHT22;2331;48.806;9.140;2024-02-16T00:37:43;14.20;1.00
4637;DHT22;2331;48.806;9.140;2024-02-16T00:40:11;14.20;1.00
4637;DHT22;2331;48.806;9.140;2024-02-16T00:42:39;14.20;1.00
4637;DHT22;2331;48.806;9.140;2024-02-16T00:45:07;14.20;1.00
4637;DHT22;2331;48.806;9.140;2024-02-16T00:47:34;14.20;1.00
4637;DHT22;2331;48.806;9.140;2024-02-16T00:50:01;14.20;1.00
4637;DHT22;2331;48.806;9.140;2024-02-16T00:52:30;14.20;1.00
4637;DHT22;2331;48.806;9.140;2024-02-16T00:54:57;14.20;1.00
4637;DHT22;2331;48.806;9.140;2024-02-16T00:57:24;14.20;1.00
4637;DHT22;2331;48.806;9.140;2024-02-16T00:59:52;14.20;1.00
4637;DHT22;2331;48.806;9.140;2024-02-16T01:02:20;14.20;1.00
4637;DHT22;2331;48.806;9.140;2024-02-16T01:04:48;14.10;1.00
4637;DHT22;2331;48.806;9.140;2024-02-16T01:07:15;14.10;1.00
4637;DHT22;2331;48.806;9.140;2024-02-16T01:09:42;14.10;1.00
4637;DHT22;2331;48.806;9.140;2024-02-16T01:12:09;14.10;1.00
4637;DHT22;2331;48.806;9.140;2024-02-16T01:14:37;14.10;1.00
4637;DHT22;2331;48.806;9.140;2024-02-16T01:17:05;14.10;1.00
4637;DHT22;2331;48.806;9.140;2024-02-16T01:19:31;14.10;1.00
4637;DHT22;2331;48.806;9.140;2024-02-16T01:21:58;14.10;1.00
4637;DHT22;2331;48.806;9.140;2024-02-16T01:24:26;14.10;1.00
4637;DHT22;2331;48.806;9.140;2024-02-16T01:26:52;14.10;1.00
4637;DHT22;2331;48.806;9.140;2024-02-16T01:29:19;14.10;1.00
4637;DHT22;2331;48.806;9.140;2024-02-16T01:31:46;14.10;1.00
4637;DHT22;2331;48.806;9.140;2024-02-16T01:34:14;14.10;1.00
4637;DHT22;2331;48.806;9.140;2024-02-16T01:36:41;14.10;1.00
4637;DHT22;2331;48.806;9.140;2024-02-16T01:39:07;14.10;1.00
4637;DHT22;2331;48.806;9.140;2024-02-16T01:41:34;14.10;1.00
4637;DHT22;2331;48.806;9.140;2024-02-16T01:44:04;14.10;1.00
4637;DHT22;2331;48.806;9.140;2024-02-16T01:46:31;14.10;1.00
4637;DHT22;2331;48.806;9.140;2024-02-16T01:48:58;14.10;1.00
4637;DHT22;2331;48.806;9.140;2024-02-16T01:51:26;14.10;1.00
4637;DHT22;2331;48.806;9.140;2024-02-16T01:53:54;14.00;1.00
4637;DHT22;2331;48.806;9.140;2024-02-16T01:56:21;14.00;1.00
4637;DHT22;2331;48.806;9.140;2024-02-16T01:58:50;14.10;1.00
4637;DHT22;2331;48.806;9.140;2024-02-16T02:01:17;14.00;1.00
4637;DHT22;2331;48.806;9.140;2024-02-16T02:03:44;14.00;1.00
4637;DHT22;2331;48.806;9.140;2024-02-16T02:06:10;13.90;1.00
4637;DHT22;2331;48.806;9.140;2024-02-16T02:08:38;13.90;1.00
4637;DHT22;2331;48.806;9.140;2024-02-16T02:11:05;13.80;1.00
4637;DHT22;2331;48.806;9.140;2024-02-16T02:13:32;13.80;1.00
4637;DHT22;2331;48.806;9.140;2024-02-16T02:15:58;13.80;1.00
4637;DHT22;2331;48.806;9.140;2024-02-16T02:18:25;13.80;1.00
4637;DHT22;2331;48.806;9.140;2024-02-16T02:20:52;13.90;1.00
4637;DHT22;2331;48.806;9.140;2024-02-16T02:23:20;13.90;1.00
4637;DHT22;2331;48.806;9.140;2024-02-16T02:25:47;13.80;1.00
4637;DHT22;2331;48.806;9.140;2024-02-16T02:28:14;13.80;1.00
4637;DHT22;2331;48.806;9.140;2024-02-16T02:30:43;13.80;1.00
4637;DHT22;2331;48.806;9.140;2024-02-16T02:33:10;13.90;1.00
4637;DHT22;2331;48.806;9.140;2024-02-16T02:35:39;13.90;1.00
4637;DHT22;2331;48.806;9.140;2024-02-16T02:38:06;13.90;1.00
4637;DHT22;2331;48.806;9.140;2024-02-16T02:43:56;13.90;1.00
4637;DHT22;2331;48.806;9.140;2024-02-16T02:46:23;14.00;1.00
4637;DHT22;2331;48.806;9.140;2024-02-16T02:48:50;14.00;1.00
4637;DHT22;2331;48.806;9.140;2024-02-16T02:51:17;13.90;1.00
4637;DHT22;2331;48.806;9.140;2024-02-16T02:53:44;13.90;1.00
4637;DHT22;2331;48.806;9.140;2024-02-16T02:56:11;14.00;1.00
4637;DHT22;2331;48.806;9.140;2024-02-16T02:58:40;14.00;1.00
4637;DHT22;2331;48.806;9.140;2024-02-16T03:01:09;14.00;1.00
4637;DHT22;2331;48.806;9.140;2024-02-16T03:03:35;14.00;1.00
4637;DHT22;2331;48.806;9.140;2024-02-16T03:06:04;14.00;1.00
4637;DHT22;2331;48.806;9.140;2024-02-16T03:08:31;14.00;1.00
4637;DHT22;2331;48.806;9.140;2024-02-16T03:10:58;14.00;1.00
4637;DHT22;2331;48.806;9.140;2024-02-16T03:13:26;14.00;1.00
4637;DHT22;2331;48.806;9.140;2024-02-16T03:15:53;13.90;1.00
4637;DHT22;2331;48.806;9.140;2024-02-16T03:18:21;13.90;1.00
4637;DHT22;2331;48.806;9.140;2024-02-16T03:20:48;13.90;1.00
4637;DHT22;2331;48.806;9.140;2024-02-16T03:23:16;13.90;1.00
4637;DHT22;2331;48.806;9.140;2024-02-16T03:25:43;13.90;1.00
4637;DHT22;2331;48.806;9.140;2024-02-16T03:28:11;13.90;1.00
4637;DHT22;2331;48.806;9.140;2024-02-16T03:30:39;13.90;1.00
4637;DHT22;2331;48.806;9.140;2024-02-16T03:33:05;13.90;1.00
4637;DHT22;2331;48.806;9.140;2024-02-16T03:35:34;13.90;1.00
4637;DHT22;2331;48.806;9.140;2024-02-16T03:38:01;13.90;1.00
4637;DHT22;2331;48.806;9.140;2024-02-16T03:40:28;13.90;1.00
4637;DHT22;2331;48.806;9.140;2024-02-16T03:42:55;13.90;1.00
4637;DHT22;2331;48.806;9.140;2024-02-16T03:45:23;13.80;1.00
4637;DHT22;2331;48.806;9.140;2024-02-16T03:47:52;13.80;1.00
4637;DHT22;2331;48.806;9.140;2024-02-16T03:50:19;13.90;1.00
4637;DHT22;2331;48.806;9.140;2024-02-16T03:52:47;13.80;1.00
4637;DHT22;2331;48.806;9.140;2024-02-16T03:55:14;13.80;1.00
4637;DHT22;2331;48.806;9.140;2024-02-16T03:57:41;13.80;1.00
4637;DHT22;2331;48.806;9.140;2024-02-16T04:00:08;13.80;1.00
4637;DHT22;2331;48.806;9.140;2024-02-16T04:02:35;13.80;1.00
4637;DHT22;2331;48.806;9.140;2024-02-16T04:05:03;13.80;1.00
4637;DHT22;2331;48.806;9.140;2024-02-16T04:07:29;13.80;1.00
4637;DHT22;2331;48.806;9.140;2024-02-16T04:09:57;13.80;1.00
4637;DHT22;2331;48.806;9.140;2024-02-16T04:12:25;13.80;1.00
4637;DHT22;2331;48.806;9.140;2024-02-16T04:14:52;13.80;1.00
4637;DHT22;2331;48.806;9.140;2024-02-16T04:17:19;13.70;1.00
4637;DHT22;2331;48.806;9.140;2024-02-16T04:19:45;13.80;1.00
4637;DHT22;2331;48.806;9.140;2024-02-16T04:22:12;13.70;1.00
4637;DHT22;2331;48.806;9.140;2024-02-16T04:24:39;13.70;1.00
4637;DHT22;2331;48.806;9.140;2024-02-16T04:27:07;13.70;1.00
4637;DHT22;2331;48.806;9.140;2024-02-16T04:29:33;13.70;1.00
4637;DHT22;2331;48.806;9.140;2024-02-16T04:32:00;13.70;1.00
4637;DHT22;2331;48.806;9.140;2024-02-16T04:34:27;13.70;1.00
4637;DHT22;2331;48.806;9.140;2024-02-16T04:36:53;13.70;1.00
4637;DHT22;2331;48.806;9.140;2024-02-16T04:39:20;13.70;1.00
4637;DHT22;2331;48.806;9.140;2024-02-16T04:41:47;13.70;1.00
4637;DHT22;2331;48.806;9.140;2024-02-16T04:44:15;13.70;1.00
4637;DHT22;2331;48.806;9.140;2024-02-16T04:46:42;13.70;1.00
4637;DHT22;2331;48.806;9.140;2024-02-16T04:49:09;13.70;1.00
4637;DHT22;2331;48.806;9.140;2024-02-16T04:51:36;13.70;1.00
4637;DHT22;2331;48.806;9.140;2024-02-16T04:54:04;13.70;1.00
4637;DHT22;2331;48.806;9.140;2024-02-16T04:56:31;13.70;1.00
4637;DHT22;2331;48.806;9.140;2024-02-16T04:58:58;13.70;1.00
4637;DHT22;2331;48.806;9.140;2024-02-16T05:01:26;13.70;1.00
4637;DHT22;2331;48.806;9.140;2024-02-16T05:03:54;13.70;1.00
4637;DHT22;2331;48.806;9.140;2024-02-16T05:06:20;13.70;1.00
4637;DHT22;2331;48.806;9.140;2024-02-16T05:08:48;13.70;1.00
4637;DHT22;2331;48.806;9.140;2024-02-16T05:11:15;13.70;1.00
4637;DHT22;2331;48.806;9.140;2024-02-16T05:13:42;13.70;1.00
4637;DHT22;2331;48.806;9.140;2024-02-16T05:16:09;13.70;1.00
4637;DHT22;2331;48.806;9.140;2024-02-16T05:18:37;13.70;1.00
4637;DHT22;2331;48.806;9.140;2024-02-16T05:21:06;13.60;1.00
4637;DHT22;2331;48.806;9.140;2024-02-16T05:23:33;13.60;1.00
4637;DHT22;2331;48.806;9.140;2024-02-16T05:25:59;13.60;1.00
4637;DHT22;2331;48.806;9.140;2024-02-16T05:28:26;13.60;1.00
4637;DHT22;2331;48.806;9.140;2024-02-16T05:30:53;13.70;1.00
4637;DHT22;2331;48.806;9.140;2024-02-16T05:33:21;13.70;1.00
4637;DHT22;2331;48.806;9.140;2024-02-16T05:35:49;13.70;1.00
4637;DHT22;2331;48.806;9.140;2024-02-16T05:38:20;13.70;1.00
4637;DHT22;2331;48.806;9.140;2024-02-16T05:40:57;13.60;1.00
4637;DHT22;2331;48.806;9.140;2024-02-16T05:43:24;13.70;1.00
4637;DHT22;2331;48.806;9.140;2024-02-16T05:45:51;13.60;1.00
4637;DHT22;2331;48.806;9.140;2024-02-16T05:48:17;13.60;1.00
4637;DHT22;2331;48.806;9.140;2024-02-16T05:50:44;13.60;1.00
4637;DHT22;2331;48.806;9.140;2024-02-16T05:53:12;13.60;1.00
4637;DHT22;2331;48.806;9.140;2024-02-16T05:55:39;13.60;1.00
4637;DHT22;2331;48.806;9.140;2024-02-16T05:58:06;13.60;1.00
4637;DHT22;2331;48.806;9.140;2024-02-16T06:00:34;13.60;1.00
4637;DHT22;2331;48.806;9.140;2024-02-16T06:03:00;13.60;1.00
4637;DHT22;2331;48.806;9.140;2024-02-16T06:05:28;13.50;1.00
4637;DHT22;2331;48.806;9.140;2024-02-16T06:07:54;13.50;1.00
4637;DHT22;2331;48.806;9.140;2024-02-16T06:10:23;13.50;1.00
4637;DHT22;2331;48.806;9.140;2024-02-16T06:12:50;13.50;1.00
4637;DHT22;2331;48.806;9.140;2024-02-16T06:15:17;13.50;1.00
4637;DHT22;2331;48.806;9.140;2024-02-16T06:17:43;13.50;1.00
4637;DHT22;2331;48.806;9.140;2024-02-16T06:20:10;13.50;1.00
4637;DHT22;2331;48.806;9.140;2024-02-16T06:22:37;13.50;1.00
4637;DHT22;2331;48.806;9.140;2024-02-16T06:25:04;13.50;1.00
4637;DHT22;2331;48.806;9.140;2024-02-16T06:27:32;13.50;1.00
4637;DHT22;2331;48.806;9.140;2024-02-16T06:29:59;13.50;1.00
4637;DHT22;2331;48.806;9.140;2024-02-16T06:32:25;13.50;1.00
4637;DHT22;2331;48.806;9.140;2024-02-16T06:34:53;13.50;1.00
4637;DHT22;2331;48.806;9.140;2024-02-16T06:37:21;13.50;1.00
4637;DHT22;2331;48.806;9.140;2024-02-16T06:39:47;13.50;1.00
4637;DHT22;2331;48.806;9.140;2024-02-16T06:42:14;13.50;1.00
4637;DHT22;2331;48.806;9.140;2024-02-16T06:44:42;13.50;1.00
4637;DHT22;2331;48.806;9.140;2024-02-16T06:47:09;13.50;1.00
4637;DHT22;2331;48.806;9.140;2024-02-16T06:49:36;13.40;1.00
4637;DHT22;2331;48.806;9.140;2024-02-16T06:52:04;13.40;1.00
4637;DHT22;2331;48.806;9.140;2024-02-16T06:54:31;13.50;1.00
4637;DHT22;2331;48.806;9.140;2024-02-16T06:56:57;13.50;1.00
4637;DHT22;2331;48.806;9.140;2024-02-16T06:59:24;13.50;1.00
4637;DHT22;2331;48.806;9.140;2024-02-16T07:01:52;13.50;1.00
4637;DHT22;2331;48.806;9.140;2024-02-16T07:04:19;13.50;1.00
4637;DHT22;2331;48.806;9.140;2024-02-16T07:07:02;13.40;1.00
4637;DHT22;2331;48.806;9.140;2024-02-16T07:12:30;13.50;1.00
4637;DHT22;2331;48.806;9.140;2024-02-16T07:14:59;13.40;1.00
4637;DHT22;2331;48.806;9.140;2024-02-16T07:17:32;13.40;1.00
4637;DHT22;2331;48.806;9.140;2024-02-16T07:20:00;13.50;1.00
4637;DHT22;2331;48.806;9.140;2024-02-16T07:22:35;13.50;1.00
4637;DHT22;2331;48.806;9.140;2024-02-16T07:25:04;13.50;1.00
4637;DHT22;2331;48.806;9.140;2024-02-16T07:27:38;13.40;1.00
4637;DHT22;2331;48.806;9.140;2024-02-16T07:30:08;13.50;1.00
4637;DHT22;2331;48.806;9.140;2024-02-16T07:32:39;13.40;1.00
4637;DHT22;2331;48.806;9.140;2024-02-16T07:35:12;13.40;1.00
4637;DHT22;2331;48.806;9.140;2024-02-16T07:37:42;13.40;1.00
4637;DHT22;2331;48.806;9.140;2024-02-16T07:40:31;13.50;1.00
4637;DHT22;2331;48.806;9.140;2024-02-16T07:42:58;13.40;1.00
4637;DHT22;2331;48.806;9.140;2024-02-16T07:45:25;13.30;1.00
4637;DHT22;2331;48.806;9.140;2024-02-16T07:47:53;13.40;1.00
4637;DHT22;2331;48.806;9.140;2024-02-16T07:50:20;13.40;1.00
4637;DHT22;2331;48.806;9.140;2024-02-16T07:52:50;13.30;1.00
4637;DHT22;2331;48.806;9.140;2024-02-16T07:55:17;13.30;1.00
4637;DHT22;2331;48.806;9.140;2024-02-16T07:57:55;13.30;1.00
4637;DHT22;2331;48.806;9.140;2024-02-16T08:00:22;13.30;1.00
4637;DHT22;2331;48.806;9.140;2024-02-16T08:03:09;13.30;1.00
4637;DHT22;2331;48.806;9.140;2024-02-16T08:05:40;13.30;1.00
4637;DHT22;2331;48.806;9.140;2024-02-16T08:08:10;13.30;1.00
4637;DHT22;2331;48.806;9.140;2024-02-16T08:10:36;13.30;1.00
4637;DHT22;2331;48.806;9.140;2024-02-16T08:13:03;13.30;1.00
4637;DHT22;2331;48.806;9.140;2024-02-16T08:15:30;13.30;1.00
4637;DHT22;2331;48.806;9.140;2024-02-16T08:17:58;13.30;1.00
4637;DHT22;2331;48.806;9.140;2024-02-16T08:20:29;13.30;1.00
4637;DHT22;2331;48.806;9.140;2024-02-16T08:23:01;13.40;1.00
4637;DHT22;2331;48.806;9.140;2024-02-16T08:25:32;13.40;1.00
4637;DHT22;2331;48.806;9.140;2024-02-16T08:28:07;13.40;1.00
4637;DHT22;2331;48.806;9.140;2024-02-16T08:30:36;13.40;1.00
4637;DHT22;2331;48.806;9.140;2024-02-16T08:33:10;13.50;1.00
4637;DHT22;2331;48.806;9.140;2024-02-16T08:35:40;13.40;1.00
4637;DHT22;2331;48.806;9.140;2024-02-16T08:42:10;13.50;1.00
4637;DHT22;2331;48.806;9.140;2024-02-16T08:44:49;13.50;1.00
4637;DHT22;2331;48.806;9.140;2024-02-16T08:47:54;13.50;1.00
4637;DHT22;2331;48.806;9.140;2024-02-16T08:51:01;13.50;1.00
4637;DHT22;2331;48.806;9.140;2024-02-16T08:53:55;13.60;1.00
4637;DHT22;2331;48.806;9.140;2024-02-16T08:56:58;13.60;1.00
4637;DHT22;2331;48.806;9.140;2024-02-16T08:59:33;13.60;1.00
4637;DHT22;2331;48.806;9.140;2024-02-16T09:02:04;13.70;1.00
4637;DHT22;2331;48.806;9.140;2024-02-16T09:04:37;13.70;1.00
4637;DHT22;2331;48.806;9.140;2024-02-16T09:07:13;13.80;1.00
4637;DHT22;2331;48.806;9.140;2024-02-16T09:09:39;13.80;1.00
4637;DHT22;2331;48.806;9.140;2024-02-16T09:12:06;13.80;1.00
4637;DHT22;2331;48.806;9.140;2024-02-16T09:14:33;13.90;1.00
4637;DHT22;2331;48.806;9.140;2024-02-16T09:17:00;13.90;1.00
4637;DHT22;2331;48.806;9.140;2024-02-16T09:19:26;14.00;1.00
4637;DHT22;2331;48.806;9.140;2024-02-16T09:21:53;14.10;1.00
4637;DHT22;2331;48.806;9.140;2024-02-16T09:24:21;14.20;1.00
4637;DHT22;2331;48.806;9.140;2024-02-16T09:26:50;14.20;1.00
4637;DHT22;2331;48.806;9.140;2024-02-16T09:29:17;14.30;1.00
4637;DHT22;2331;48.806;9.140;2024-02-16T09:31:49;14.40;1.00
4637;DHT22;2331;48.806;9.140;2024-02-16T09:34:16;14.40;1.00
4637;DHT22;2331;48.806;9.140;2024-02-16T09:36:43;14.60;1.00
4637;DHT22;2331;48.806;9.140;2024-02-16T09:39:11;14.70;1.00
4637;DHT22;2331;48.806;9.140;2024-02-16T09:41:42;14.70;1.00
4637;DHT22;2331;48.806;9.140;2024-02-16T09:44:09;14.70;1.00
4637;DHT22;2331;48.806;9.140;2024-02-16T09:46:39;14.70;1.00
4637;DHT22;2331;48.806;9.140;2024-02-16T09:49:08;14.90;1.00
4637;DHT22;2331;48.806;9.140;2024-02-16T09:51:36;14.90;1.00
4637;DHT22;2331;48.806;9.140;2024-02-16T09:54:03;14.90;1.00
4637;DHT22;2331;48.806;9.140;2024-02-16T09:56:30;15.00;1.00
4637;DHT22;2331;48.806;9.140;2024-02-16T09:58:58;15.10;1.00
4637;DHT22;2331;48.806;9.140;2024-02-16T10:01:26;15.30;1.00
4637;DHT22;2331;48.806;9.140;2024-02-16T10:03:54;15.40;1.00
4637;DHT22;2331;48.806;9.140;2024-02-16T10:06:20;15.50;1.00
4637;DHT22;2331;48.806;9.140;2024-02-16T10:08:49;15.70;1.00
4637;DHT22;2331;48.806;9.140;2024-02-16T10:11:16;15.90;1.00
4637;DHT22;2331;48.806;9.140;2024-02-16T10:13:54;16.10;1.00
4637;DHT22;2331;48.806;9.140;2024-02-16T10:16:31;16.20;1.00
4637;DHT22;2331;48.806;9.140;2024-02-16T10:19:04;16.30;1.00
4637;DHT22;2331;48.806;9.140;2024-02-16T10:21:31;16.40;1.00
4637;DHT22;2331;48.806;9.140;2024-02-16T10:24:00;16.50;1.00
4637;DHT22;2331;48.806;9.140;2024-02-16T10:26:28;16.60;1.00
4637;DHT22;2331;48.806;9.140;2024-02-16T10:28:56;16.70;1.00
4637;DHT22;2331;48.806;9.140;2024-02-16T10:31:25;16.80;1.00
4637;DHT22;2331;48.806;9.140;2024-02-16T10:33:59;16.90;1.00
4637;DHT22;2331;48.806;9.140;2024-02-16T10:36:27;17.00;1.00
4637;DHT22;2331;48.806;9.140;2024-02-16T10:38:55;17.00;1.00
4637;DHT22;2331;48.806;9.140;2024-02-16T10:41:26;17.10;1.00
4637;DHT22;2331;48.806;9.140;2024-02-16T10:43:54;17.20;1.00
4637;DHT22;2331;48.806;9.140;2024-02-16T10:46:22;17.30;1.00
4637;DHT22;2331;48.806;9.140;2024-02-16T10:48:51;17.40;1.00
4637;DHT22;2331;48.806;9.140;2024-02-16T10:51:21;17.40;1.00
4637;DHT22;2331;48.806;9.140;2024-02-16T10:53:51;17.40;1.00
4637;DHT22;2331;48.806;9.140;2024-02-16T10:56:27;17.50;1.00
4637;DHT22;2331;48.806;9.140;2024-02-16T10:58:54;17.50;1.00
4637;DHT22;2331;48.806;9.140;2024-02-16T11:01:23;17.70;1.00
4637;DHT22;2331;48.806;9.140;2024-02-16T11:04:00;17.70;1.00
4637;DHT22;2331;48.806;9.140;2024-02-16T11:06:28;17.70;1.00
4637;DHT22;2331;48.806;9.140;2024-02-16T11:09:00;17.70;1.00
4637;DHT22;2331;48.806;9.140;2024-02-16T11:11:28;17.80;1.00
4637;DHT22;2331;48.806;9.140;2024-02-16T11:13:57;17.80;1.00
4637;DHT22;2331;48.806;9.140;2024-02-16T11:16:25;17.90;1.00
4637;DHT22;2331;48.806;9.140;2024-02-16T11:18:53;18.00;1.00
4637;DHT22;2331;48.806;9.140;2024-02-16T11:21:20;18.00;1.00
4637;DHT22;2331;48.806;9.140;2024-02-16T11:23:47;18.10;1.00
4637;DHT22;2331;48.806;9.140;2024-02-16T11:29:31;18.20;1.00
4637;DHT22;2331;48.806;9.140;2024-02-16T11:31:59;18.20;1.00
4637;DHT22;2331;48.806;9.140;2024-02-16T11:34:27;18.20;1.00
4637;DHT22;2331;48.806;9.140;2024-02-16T11:36:55;18.30;1.00
4637;DHT22;2331;48.806;9.140;2024-02-16T11:39:23;18.30;1.00
4637;DHT22;2331;48.806;9.140;2024-02-16T11:41:59;18.30;1.00
4637;DHT22;2331;48.806;9.140;2024-02-16T11:44:27;18.30;1.00
4637;DHT22;2331;48.806;9.140;2024-02-16T11:46:54;18.30;1.00
4637;DHT22;2331;48.806;9.140;2024-02-16T11:49:21;18.40;1.00
4637;DHT22;2331;48.806;9.140;2024-02-16T11:51:49;18.40;1.00
4637;DHT22;2331;48.806;9.140;2024-02-16T11:54:16;18.40;1.00
4637;DHT22;2331;48.806;9.140;2024-02-16T11:56:43;18.50;1.00
4637;DHT22;2331;48.806;9.140;2024-02-16T11:59:12;18.50;1.00
4637;DHT22;2331;48.806;9.140;2024-02-16T12:01:48;18.60;1.00
4637;DHT22;2331;48.806;9.140;2024-02-16T12:04:20;18.60;1.00
4637;DHT22;2331;48.806;9.140;2024-02-16T12:06:48;18.70;1.00
4637;DHT22;2331;48.806;9.140;2024-02-16T12:09:16;18.80;1.00
4637;DHT22;2331;48.806;9.140;2024-02-16T12:11:43;18.80;1.00
4637;DHT22;2331;48.806;9.140;2024-02-16T12:14:10;18.80;1.00
4637;DHT22;2331;48.806;9.140;2024-02-16T12:16:37;18.80;1.00
4637;DHT22;2331;48.806;9.140;2024-02-16T12:19:04;18.70;1.00
4637;DHT22;2331;48.806;9.140;2024-02-16T12:21:31;18.80;1.00
4637;DHT22;2331;48.806;9.140;2024-02-16T12:23:59;18.90;1.00
4637;DHT22;2331;48.806;9.140;2024-02-16T12:26:26;18.90;1.00
4637;DHT22;2331;48.806;9.140;2024-02-16T12:28:52;18.80;1.00
4637;DHT22;2331;48.806;9.140;2024-02-16T12:31:19;18.80;1.00
4637;DHT22;2331;48.806;9.140;2024-02-16T12:33:46;18.90;1.00
4637;DHT22;2331;48.806;9.140;2024-02-16T12:36:13;18.90;1.00
4637;DHT22;2331;48.806;9.140;2024-02-16T12:38:40;18.90;1.00
4637;DHT22;2331;48.806;9.140;2024-02-16T12:41:08;19.00;1.00
4637;DHT22;2331;48.806;9.140;2024-02-16T12:43:34;19.00;1.00
4637;DHT22;2331;48.806;9.140;2024-02-16T12:49:24;19.00;1.00
4637;DHT22;2331;48.806;9.140;2024-02-16T12:51:58;19.10;1.00
4637;DHT22;2331;48.806;9.140;2024-02-16T12:54:33;19.10;1.00
4637;DHT22;2331;48.806;9.140;2024-02-16T12:57:31;19.00;1.00
4637;DHT22;2331;48.806;9.140;2024-02-16T13:00:15;19.00;1.00
4637;DHT22;2331;48.806;9.140;2024-02-16T13:02:45;19.20;1.00
4637;DHT22;2331;48.806;9.140;2024-02-16T13:05:41;19.10;1.00
4637;DHT22;2331;48.806;9.140;2024-02-16T13:11:36;19.10;1.00
4637;DHT22;2331;48.806;9.140;2024-02-16T13:14:14;19.10;1.00
4637;DHT22;2331;48.806;9.140;2024-02-16T13:16:44;19.20;1.00
4637;DHT22;2331;48.806;9.140;2024-02-16T13:19:14;19.20;1.00
4637;DHT22;2331;48.806;9.140;2024-02-16T13:21:49;19.20;1.00
4637;DHT22;2331;48.806;9.140;2024-02-16T13:24:19;19.20;1.00
4637;DHT22;2331;48.806;9.140;2024-02-16T13:26:46;19.20;1.00
4637;DHT22;2331;48.806;9.140;2024-02-16T13:29:27;19.30;1.00
4637;DHT22;2331;48.806;9.140;2024-02-16T13:32:28;19.30;1.00
4637;DHT22;2331;48.806;9.140;2024-02-16T13:35:07;19.30;1.00
4637;DHT22;2331;48.806;9.140;2024-02-16T13:37:46;19.30;1.00
4637;DHT22;2331;48.806;9.140;2024-02-16T13:40:16;19.30;1.00
4637;DHT22;2331;48.806;9.140;2024-02-16T13:42:53;19.40;1.00
4637;DHT22;2331;48.806;9.140;2024-02-16T13:45:28;19.40;1.00
4637;DHT22;2331;48.806;9.140;2024-02-16T13:47:56;19.40;1.00
4637;DHT22;2331;48.806;9.140;2024-02-16T13:50:23;19.50;1.00
4637;DHT22;2331;48.806;9.140;2024-02-16T13:52:50;19.40;1.00
4637;DHT22;2331;48.806;9.140;2024-02-16T13:55:17;19.40;1.00
4637;DHT22;2331;48.806;9.140;2024-02-16T13:57:43;19.40;1.00
4637;DHT22;2331;48.806;9.140;2024-02-16T14:00:11;19.40;1.00
4637;DHT22;2331;48.806;9.140;2024-02-16T14:02:39;19.40;1.00
4637;DHT22;2331;48.806;9.140;2024-02-16T14:05:06;19.40;1.00
4637;DHT22;2331;48.806;9.140;2024-02-16T14:07:33;19.30;1.00
4637;DHT22;2331;48.806;9.140;2024-02-16T14:09:59;19.20;1.00
4637;DHT22;2331;48.806;9.140;2024-02-16T14:12:26;19.20;1.00
4637;DHT22;2331;48.806;9.140;2024-02-16T14:14:53;19.10;1.00
4637;DHT22;2331;48.806;9.140;2024-02-16T14:17:19;19.10;1.00
4637;DHT22;2331;48.806;9.140;2024-02-16T14:19:47;19.10;1.00
4637;DHT22;2331;48.806;9.140;2024-02-16T14:22:14;19.10;1.00
4637;DHT22;2331;48.806;9.140;2024-02-16T14:24:40;19.10;1.00
4637;DHT22;2331;48.806;9.140;2024-02-16T14:27:07;19.00;1.00
4637;DHT22;2331;48.806;9.140;2024-02-16T14:29:34;18.90;1.00
4637;DHT22;2331;48.806;9.140;2024-02-16T14:32:00;19.00;1.00
4637;DHT22;2331;48.806;9.140;2024-02-16T14:34:28;18.80;1.00
4637;DHT22;2331;48.806;9.140;2024-02-16T14:36:57;18.80;1.00
4637;DHT22;2331;48.806;9.140;2024-02-16T14:39:24;18.70;1.00
4637;DHT22;2331;48.806;9.140;2024-02-16T14:41:51;18.70;1.00
4637;DHT22;2331;48.806;9.140;2024-02-16T14:44:17;18.70;1.00
4637;DHT22;2331;48.806;9.140;2024-02-16T14:46:44;18.80;1.00
4637;DHT22;2331;48.806;9.140;2024-02-16T14:49:11;18.60;1.00
4637;DHT22;2331;48.806;9.140;2024-02-16T14:51:44;18.50;1.00
4637;DHT22;2331;48.806;9.140;2024-02-16T14:54:12;18.50;1.00
4637;DHT22;2331;48.806;9.140;2024-02-16T14:56:39;18.60;1.00
4637;DHT22;2331;48.806;9.140;2024-02-16T14:59:06;18.50;1.00
4637;DHT22;2331;48.806;9.140;2024-02-16T15:01:33;18.40;1.00
4637;DHT22;2331;48.806;9.140;2024-02-16T15:03:59;18.40;1.00
4637;DHT22;2331;48.806;9.140;2024-02-16T15:06:27;18.30;1.00
4637;DHT22;2331;48.806;9.140;2024-02-16T15:08:54;18.30;1.00
4637;DHT22;2331;48.806;9.140;2024-02-16T15:11:22;18.30;1.00
4637;DHT22;2331;48.806;9.140;2024-02-16T15:13:49;18.20;1.00
4637;DHT22;2331;48.806;9.140;2024-02-16T15:16:15;18.20;1.00
4637;DHT22;2331;48.806;9.140;2024-02-16T15:18:42;18.40;1.00
4637;DHT22;2331;48.806;9.140;2024-02-16T15:21:09;18.50;1.00
4637;DHT22;2331;48.806;9.140;2024-02-16T15:23:36;18.60;1.00
4637;DHT22;2331;48.806;9.140;2024-02-16T15:26:02;18.50;1.00
4637;DHT22;2331;48.806;9.140;2024-02-16T15:28:32;18.40;1.00
4637;DHT22;2331;48.806;9.140;2024-02-16T15:30:58;18.40;1.00
4637;DHT22;2331;48.806;9.140;2024-02-16T15:33:25;18.50;1.00
4637;DHT22;2331;48.806;9.140;2024-02-16T15:35:52;18.40;1.00
4637;DHT22;2331;48.806;9.140;2024-02-16T15:38:18;18.40;1.00
4637;DHT22;2331;48.806;9.140;2024-02-16T15:40:45;18.40;1.00
4637;DHT22;2331;48.806;9.140;2024-02-16T15:43:12;18.40;1.00
4637;DHT22;2331;48.806;9.140;2024-02-16T15:45:40;18.30;1.00
4637;DHT22;2331;48.806;9.140;2024-02-16T15:48:08;18.20;1.00
4637;DHT22;2331;48.806;9.140;2024-02-16T15:50:35;18.30;1.00
4637;DHT22;2331;48.806;9.140;2024-02-16T15:53:02;18.30;1.00
4637;DHT22;2331;48.806;9.140;2024-02-16T15:55:29;18.30;1.00
4637;DHT22;2331;48.806;9.140;2024-02-16T15:57:57;18.10;1.00
4637;DHT22;2331;48.806;9.140;2024-02-16T16:00:24;18.10;1.00
4637;DHT22;2331;48.806;9.140;2024-02-16T16:02:52;18.10;1.00
4637;DHT22;2331;48.806;9.140;2024-02-16T16:05:19;18.10;1.00
4637;DHT22;2331;48.806;9.140;2024-02-16T16:07:45;18.20;1.00
4637;DHT22;2331;48.806;9.140;2024-02-16T16:10:12;18.00;1.00
4637;DHT22;2331;48.806;9.140;2024-02-16T16:12:42;18.00;1.00
4637;DHT22;2331;48.806;9.140;2024-02-16T16:15:09;18.00;1.00
4637;DHT22;2331;48.806;9.140;2024-02-16T16:17:36;18.10;1.00
4637;DHT22;2331;48.806;9.140;2024-02-16T16:20:06;18.00;1.00
4637;DHT22;2331;48.806;9.140;2024-02-16T16:22:33;18.10;1.00
4637;DHT22;2331;48.806;9.140;2024-02-16T16:25:00;18.10;1.00
4637;DHT22;2331;48.806;9.140;2024-02-16T16:27:26;18.10;1.00
4637;DHT22;2331;48.806;9.140;2024-02-16T16:29:53;18.10;1.00
4637;DHT22;2331;48.806;9.140;2024-02-16T16:32:20;18.10;1.00
4637;DHT22;2331;48.806;9.140;2024-02-16T16:34:47;18.10;1.00
4637;DHT22;2331;48.806;9.140;2024-02-16T16:37:15;18.10;1.00
4637;DHT22;2331;48.806;9.140;2024-02-16T16:39:41;17.90;1.00
4637;DHT22;2331;48.806;9.140;2024-02-16T16:42:08;18.00;1.00
4637;DHT22;2331;48.806;9.140;2024-02-16T16:44:35;18.00;1.00
4637;DHT22;2331;48.806;9.140;2024-02-16T16:47:01;18.10;1.00